• Join FlightAware (Why Join?)
  • Login
  • US Flag 
08:55AM EDT


 

Airport Tracker/Info


-or-


 

Live Flight TrackerFlight Track Log ✈ CES5648 ✈ 2014년 Jun 14일 ✈ ZSWY / WUS - ZSSS / SHA

Flight Track Log - Related Links

Times and Time Zones

All times are in EDT time to prevent confusion due to time zone crossing. See the CES5648 flight status page for this flight to view local times or setup timezone preferences in your user account.

Time Position Orientation Groundspeed Altitude Reporting Facility
EDT Latitude Longitude Course Direction KTS MPH feet Rate Location/Type
10:47AM 28.4998 118.7359 39° Northeast  Level Estimated
10:48AM 28.5662 118.7977 39° Northeast  Level Estimated
10:49AM 28.6324 118.8595 39° Northeast  Level Estimated
10:50AM 28.6987 118.9213 39° Northeast  Level Estimated
10:51AM 28.7649 118.9833 39° Northeast  Level Estimated
10:52AM 28.8311 119.0453 39° Northeast  Level Estimated
10:53AM 28.8973 119.1074 39° Northeast  Level Estimated
10:54AM 28.9634 119.1696 39° Northeast  Level Estimated
10:55AM 29.0296 119.2318 39° Northeast  Level Estimated
10:56AM 29.0956 119.2942 39° Northeast  Level Estimated
10:57AM 29.1617 119.3566 40° Northeast  Level Estimated
10:58AM 29.2277 119.4191 40° Northeast  Level Estimated
10:59AM 29.2937 119.4817 40° Northeast  Level Estimated
11:00AM 29.3597 119.5443 40° Northeast  Level Estimated
11:01AM 29.4256 119.6071 40° Northeast  Level Estimated
11:02AM 29.4916 119.6699 40° Northeast  Level Estimated
11:03AM 29.5574 119.7328 40° Northeast  Level Estimated
11:04AM 29.6233 119.7958 40° Northeast  Level Estimated
11:05AM 29.6891 119.8589 40° Northeast  Level Estimated
11:06AM 29.7549 119.9220 40° Northeast  Level Estimated
11:07AM 29.8207 119.9853 40° Northeast  Level Estimated
11:08AM 29.8864 120.0486 40° Northeast  Level Estimated
11:09AM 29.9521 120.1120 40° Northeast  Level Estimated
11:10AM 30.0178 120.1755 40° Northeast  Level Estimated
11:11AM 30.0834 120.2391 40° Northeast  Level Estimated
11:12AM 30.1490 120.3027 40° Northeast  Level Estimated
11:13AM 30.2146 120.3665 40° Northeast  Level Estimated
11:14AM 30.2801 120.4303 40° Northeast  Level Estimated
11:15AM 30.3457 120.4942 40° Northeast  Level Estimated
11:16AM 30.4111 120.5582 40° Northeast  Level Estimated
11:17AM 30.4766 120.6223 40° Northeast  Level Estimated
11:18AM 30.5420 120.6865 40° Northeast  Level Estimated
11:19AM 30.6074 120.7507 40° Northeast  Level Estimated
11:20AM 30.6728 120.8151 40° Northeast  Level Estimated
11:21AM 30.7381 120.8795 40° Northeast  Level Estimated
11:22AM 30.8034 120.9440 40° Northeast  Level Estimated
11:23AM 30.8687 121.0086 40° Northeast  Level Estimated
11:24AM 30.9339 121.0733 40° Northeast  Level Estimated
11:25AM 31.0004 121.1393 40° Northeast  Level Estimated
11:26AM 31.0668 121.2055 40° Northeast  Level Estimated
11:27AM 31.1332 121.2717 40° Northeast  Level Estimated
11:28AM 31.1979 121.3363 41° Northeast  Level Estimated
11:28AM 31.0792 121.3040 346° North 233 268 6,000  Level FlightAware ADS-B (ZSSS / SHA)
11:29AM 31.1979 121.3363 North  Level Estimated
11:29AM 31.0987 121.2981 346° North 233 268 6,100  Level FlightAware ADS-B (ZSSS / SHA)
11:29AM 31.1219 121.2911 346° North 233 268 6,100  Level FlightAware ADS-B (ZSSS / SHA)
11:29AM 31.1438 121.2844 346° North 232 267 6,100 -180 Level FlightAware ADS-B (ZSSS / SHA)
11:29AM 31.1583 121.2801 346° North 233 268 6,000 -600 Descending FlightAware ADS-B (ZSSS / SHA)
11:30AM 31.1743 121.2752 346° North 230 265 5,800 -780 Descending FlightAware ADS-B (ZSSS / SHA)
11:30AM 31.1902 121.2704 346° North 225 259 5,600 -840 Descending FlightAware ADS-B (ZSSS / SHA)
11:30AM 31.2045 121.2660 346° North 222 255 5,400 -840 Descending FlightAware ADS-B (ZSSS / SHA)
11:30AM 31.2195 121.2614 346° North 222 255 5,200 -600 Descending FlightAware ADS-B (ZSSS / SHA)
11:31AM 31.2346 121.2569 346° North 207 238 5,100 -180 Descending FlightAware ADS-B (ZSSS / SHA)
11:31AM 31.2523 121.2515 346° North 194 223 5,100  Level FlightAware ADS-B (ZSSS / SHA)
11:31AM 31.2693 121.2464 346° North 193 222 5,100 -180 Level FlightAware ADS-B (ZSSS / SHA)
11:32AM 31.2820 121.2426 346° North 195 224 5,000 -660 Descending FlightAware ADS-B (ZSSS / SHA)
11:32AM 31.2946 121.2389 346° North 194 223 4,800 -780 Descending FlightAware ADS-B (ZSSS / SHA)
11:32AM 31.3091 121.2345 346° North 192 221 4,600 -780 Descending FlightAware ADS-B (ZSSS / SHA)
11:32AM 31.3214 121.2313 351° North 190 219 4,400 -840 Descending FlightAware ADS-B (ZSSS / SHA)
11:33AM 31.3341 121.2295 354° North 190 219 4,200 -660 Descending FlightAware ADS-B (ZSSS / SHA)
11:33AM 31.3442 121.2284 355° North 189 217 4,100 -960 Descending FlightAware ADS-B (ZSSS / SHA)
11:33AM 31.3737 121.2251 355° North 191 220 3,500 -1,020 Descending FlightAware ADS-B (ZSSS / SHA)
11:34AM 31.3820 121.2250 North 191 220 3,400 -840 Descending FlightAware ADS-B (ZSSS / SHA)
11:34AM 31.3871 121.2265 18° North 191 220 3,300 -1,200 Descending FlightAware ADS-B (ZSSS / SHA)
11:34AM 31.3910 121.2290 31° Northeast 190 219 3,200 -420 Descending FlightAware ADS-B (ZSSS / SHA)
11:37AM 31.3267 121.3293 177° South 179 206 2,000 -360 Descending FlightAware ADS-B (ZSSS / SHA)
11:37AM 31.3114 121.3301 177° South 154 177 2,000 -360 Level FlightAware ADS-B (ZSSS / SHA)
11:37AM 31.2994 121.3307 177° South 148 170 1,800 -840 Descending FlightAware ADS-B (ZSSS / SHA)
11:38AM 31.2913 121.3312 177° South 141 162 1,600 -600 Descending FlightAware ADS-B (ZSSS / SHA)
11:38AM 31.2805 121.3318 177° South 129 148 1,500 -600 Descending FlightAware ADS-B (ZSSS / SHA)
11:38AM 31.2719 121.3323 177° South 126 145 1,300 -780 Descending FlightAware ADS-B (ZSSS / SHA)
11:39AM 31.2606 121.3328 176° South 123 142 1,100 -540 Descending FlightAware ADS-B (ZSSS / SHA)
11:39AM 31.2512 121.3334 177° South 126 145 1,000 -600 Descending FlightAware ADS-B (ZSSS / SHA)
11:39AM 31.2441 121.3338 176° South 125 144 800 -840 Descending FlightAware ADS-B (ZSSS / SHA)
11:39AM 31.2349 121.3343 176° South 124 143 600 -600 Descending FlightAware ADS-B (ZSSS / SHA)
11:40AM 31.2199 121.3351 176° South 124 143 400 -480 Descending FlightAware ADS-B (ZSSS / SHA)
11:42AM 31.1979 121.3363 177° South  Level Estimated
11:43AM 31.1979 121.3363 North  Level Estimated